Fykan — LLDJ — position and weather

sailwx.info

Track history (hours):
 
Tides and Currents Weather Stations Pressure Air Temp Water Temp Dewpoint Dewpoint Depression Visibility Wind Speed Wind Dir Waves Ship Positions

Fykan

Last reported at 2017-Jan-19 10:32 UTC. Time now 2017-Jan-19 10:53 UTC.
Position N 67°06' E 014°01'.

Length 52 m; draft 3.3 m.

Type: Ship. MMSI: 259681000.

Date/timePositionNaut miles runAvg speedWind from/ knotsBaromVisibWave heightAir tempDewpointWater temp
2017-Jan-19 10:32N 67°06' E 014°01'2 2.1
2017-Jan-19 09:33N 67°08' E 013°59'3 2.8
2017-Jan-19 08:33N 67°05' E 014°00'1 0.4
2017-Jan-19 06:29N 67°05' E 014°02'3 3.7
2017-Jan-19 05:34N 67°08' E 013°59'0 0.0
2017-Jan-19 04:33N 67°08' E 013°59'0 0.0
2017-Jan-19 03:33N 67°08' E 013°59'0 0.0
2017-Jan-19 02:34N 67°08' E 013°59'0 0.0
2017-Jan-19 01:33N 67°08' E 013°59'0 0.0
2017-Jan-19 00:33N 67°08' E 013°59'0 0.0
2017-Jan-18 23:33N 67°08' E 013°59'0 0.0
2017-Jan-18 22:34N 67°08' E 013°59'0 0.0
2017-Jan-18 21:33N 67°08' E 013°59'0 0.0
2017-Jan-18 20:33N 67°08' E 013°59'3 2.8
2017-Jan-18 19:19N 67°05' E 014°02'3 4.5
2017-Jan-18 18:33N 67°08' E 013°59'0 0.0
2017-Jan-18 17:33N 67°08' E 013°59'0 0.0
2017-Jan-18 16:33N 67°08' E 013°59'0 0.0
2017-Jan-18 15:34N 67°08' E 013°59'0 0.0
2017-Jan-18 14:33N 67°08' E 013°59'0 0.0
2017-Jan-18 13:32N 67°08' E 013°59'0 0.0
2017-Jan-18 12:33N 67°08' E 013°59'3 3.2
2017-Jan-18 11:28N 67°05' E 014°01'2 1.8
2017-Jan-18 10:33N 67°06' E 014°01'2 1.9
2017-Jan-18 09:33N 67°08' E 013°59'2 2.0
2017-Jan-18 08:33N 67°06' E 013°59'2 0.9
2017-Jan-18 06:32N 67°05' E 014°02'3 3.5
2017-Jan-18 05:33N 67°08' E 013°59'0 0.0
2017-Jan-18 04:33N 67°08' E 013°59'0 0.0
2017-Jan-18 03:33N 67°08' E 013°59'0 0.0
2017-Jan-18 02:33N 67°08' E 013°59'0 0.0
2017-Jan-18 01:33N 67°08' E 013°59'0 0.0
2017-Jan-18 00:33N 67°08' E 013°59'0 0.0
2017-Jan-17 23:33N 67°08' E 013°59'0 0.0
2017-Jan-17 22:33N 67°08' E 013°59'0 0.0
2017-Jan-17 21:33N 67°08' E 013°59'0 0.0
2017-Jan-17 20:33N 67°08' E 013°59'4 3.9
2017-Jan-17 19:31N 67°05' E 014°04'3 2.7
2017-Jan-17 18:33N 67°06' E 013°59'1 1.4
2017-Jan-17 17:33N 67°05' E 013°60'3 3.1
2017-Jan-17 16:33N 67°08' E 013°59'3 1.7
2017-Jan-17 14:30N 67°05' E 014°02'3 3.7
2017-Jan-17 13:33N 67°08' E 013°59'0 0.0
2017-Jan-17 12:33N 67°08' E 013°59'3 3.3
2017-Jan-17 11:31N 67°05' E 014°01'2 1.6
2017-Jan-17 10:33N 67°06' E 013°59'2 2.1
2017-Jan-17 09:33N 67°08' E 013°59'2 1.7
2017-Jan-17 08:33N 67°06' E 013°59'2 1.0
2017-Jan-17 06:30N 67°05' E 014°02'3 3.7
2017-Jan-17 05:33N 67°08' E 013°59'0 0.0
2017-Jan-17 04:33N 67°08' E 013°59'0 0.0
2017-Jan-17 03:33N 67°08' E 013°59'0 0.0
2017-Jan-17 02:33N 67°08' E 013°59'0 0.0
2017-Jan-17 01:33N 67°08' E 013°59'0 0.0
2017-Jan-17 00:33N 67°08' E 013°59'0 0.0
2017-Jan-16 23:33N 67°08' E 013°59'0 0.0
2017-Jan-16 22:33N 67°08' E 013°59'0 0.0
2017-Jan-16 21:33N 67°08' E 013°59'0 0.0
2017-Jan-16 20:33N 67°08' E 013°59'4 3.9
2017-Jan-16 19:33N 67°05' E 014°04'2 2.2
2017-Jan-16 18:33N 67°06' E 013°59'1 0.7
2017-Jan-16 17:33N 67°05' E 013°60'3 2.9
2017-Jan-16 16:33N 67°08' E 013°59'3 3.5
2017-Jan-16 15:33N 67°05' E 014°01'0 0.0
2017-Jan-16 14:07N 67°05' E 014°01'3 6.2
2017-Jan-16 13:33N 67°08' E 013°59'2 0.7
2017-Jan-16 10:33N 67°06' E 013°59'2 2.2
2017-Jan-16 09:33N 67°08' E 013°59'1 1.5
2017-Jan-16 08:33N 67°07' E 013°59'2 1.1
2017-Jan-16 06:33N 67°05' E 014°02'3 3.4
2017-Jan-16 05:33N 67°08' E 013°59'0 0.0
2017-Jan-16 04:33N 67°08' E 013°59'0 0.0
2017-Jan-16 03:33N 67°08' E 013°59'0 0.0
2017-Jan-16 02:33N 67°08' E 013°59'0 0.0
2017-Jan-16 01:33N 67°08' E 013°59'0 0.0
2017-Jan-16 00:33N 67°08' E 013°59'0 0.0
2017-Jan-15 23:33N 67°08' E 013°59'0 0.0
2017-Jan-15 22:33N 67°08' E 013°59'0 0.0
2017-Jan-15 21:33N 67°08' E 013°59'0 0.0
2017-Jan-15 20:33N 67°08' E 013°59'3 1.6
2017-Jan-15 18:33N 67°05' E 014°03'2 2.1
2017-Jan-15 17:33N 67°07' E 013°58'2 1.6
2017-Jan-15 16:13N 67°05' E 014°02'3 5.3
2017-Jan-15 15:33N 67°08' E 013°59'2 2.0
2017-Jan-15 14:33N 67°06' E 013°59'2 0.3
2017-Jan-15 09:23N 67°05' E 014°02'2 1.9
2017-Jan-15 08:33N 67°06' E 013°59'1 0.1
2017-Jan-14 16:33N 67°05' E 013°60'1 0.6
2017-Jan-14 15:33N 67°05' E 014°01'1 0.3
2017-Jan-14 10:34N 67°06' E 013°59'2 2.4
2017-Jan-14 09:33N 67°08' E 013°59'1 1.0
2017-Jan-14 08:33N 67°07' E 013°59'3 2.3
2017-Jan-14 07:27N 67°05' E 014°02'3 3.9
2017-Jan-14 06:33N 67°08' E 013°59'0 0.0
2017-Jan-14 05:33N 67°08' E 013°59'0 0.0
2017-Jan-14 04:33N 67°08' E 013°59'0 0.0
2017-Jan-14 03:33N 67°08' E 013°59'0 0.0
2017-Jan-13 23:33N 67°08' E 013°59'0 0.0
2017-Jan-13 22:33N 67°08' E 013°59'0 0.0
2017-Jan-13 21:33N 67°08' E 013°59'0 0.0
2017-Jan-13 20:33N 67°08' E 013°59'4 3.8
2017-Jan-13 19:31N 67°05' E 014°04'3 2.8
2017-Jan-13 18:33N 67°07' E 013°59'1 0.7
2017-Jan-13 16:33N 67°05' E 013°60'1 0.7
2017-Jan-13 15:33N 67°05' E 014°01'0 0.1
2017-Jan-13 14:29N 67°05' E 014°02'3 3.8
2017-Jan-13 13:33N 67°08' E 013°59'0 0.0
2017-Jan-13 12:33N 67°08' E 013°59'3 3.4
2017-Jan-13 11:33N 67°05' E 014°01'1 1.4
2017-Jan-13 10:33N 67°06' E 013°59'2 2.3
2017-Jan-13 09:33N 67°08' E 013°59'2 1.6
2017-Jan-13 08:33N 67°07' E 013°59'2 1.0
2017-Jan-13 06:28N 67°05' E 014°01'3 3.8
2017-Jan-13 05:33N 67°08' E 013°59'0 0.0
2017-Jan-13 04:33N 67°08' E 013°59'0 0.0
2017-Jan-13 03:33N 67°08' E 013°59'0 0.0
2017-Jan-13 02:33N 67°08' E 013°59'0 0.0
2017-Jan-13 01:33N 67°08' E 013°59'0 0.0
2017-Jan-13 00:33N 67°08' E 013°59'0 0.0
2017-Jan-12 23:33N 67°08' E 013°59'0 0.0
2017-Jan-12 22:33N 67°08' E 013°59'0 0.0
2017-Jan-12 21:33N 67°08' E 013°59'0 0.0
2017-Jan-12 20:33N 67°08' E 013°59'3 2.9
2017-Jan-12 19:22N 67°05' E 014°02'2 2.2
2017-Jan-12 18:33N 67°06' E 013°59'1 1.2
2017-Jan-12 17:33N 67°05' E 014°00'3 3.1
2017-Jan-12 16:33N 67°08' E 013°59'3 1.7
2017-Jan-12 14:32N 67°05' E 014°02'3 3.5
2017-Jan-12 13:33N 67°08' E 013°59'0 0.0
2017-Jan-12 12:33N 67°08' E 013°59'3 2.5
2017-Jan-12 11:33N 67°06' E 013°59'0 0.3
2017-Jan-12 10:33N 67°06' E 013°59'2 2.2
2017-Jan-12 09:33N 67°08' E 013°59'2 1.5
2017-Jan-12 08:33N 67°07' E 013°59'2 1.1
2017-Jan-12 06:32N 67°05' E 014°02'3 3.5
2017-Jan-12 05:33N 67°08' E 013°59'0 0.0
2017-Jan-12 04:33N 67°08' E 013°59'0 0.0
2017-Jan-12 03:33N 67°08' E 013°59'0 0.0
2017-Jan-12 02:33N 67°08' E 013°59'0 0.0
2017-Jan-12 01:33N 67°08' E 013°59'0 0.0
2017-Jan-12 00:33N 67°08' E 013°59'0 0.0
2017-Jan-11 23:33N 67°08' E 013°59'0 0.0
2017-Jan-11 22:33N 67°08' E 013°59'0 0.0
2017-Jan-11 21:33N 67°08' E 013°59'0 0.0
2017-Jan-11 20:33N 67°08' E 013°59'3 2.7
2017-Jan-11 19:17N 67°05' E 014°01'2 2.7
2017-Jan-11 18:33N 67°07' E 013°59'2 1.5
2017-Jan-11 17:33N 67°05' E 014°00'3 3.1
2017-Jan-11 16:33N 67°08' E 013°59'3 1.7
2017-Jan-11 14:30N 67°05' E 014°02'3 3.7
2017-Jan-11 13:33N 67°08' E 013°59'0 0.0
2017-Jan-11 12:33N 67°08' E 013°59'3 2.6
2017-Jan-11 11:33N 67°06' E 013°59'1 1.2
2017-Jan-11 10:33N 67°07' E 013°59'1 1.5
2017-Jan-11 09:33N 67°08' E 013°59'2 1.6
2017-Jan-11 08:33N 67°07' E 013°59'2 1.0
2017-Jan-11 06:29N 67°05' E 014°02'3 3.6
2017-Jan-11 05:33N 67°08' E 013°59'0 0.0
2017-Jan-11 04:33N 67°08' E 013°59'0 0.0
2017-Jan-11 03:33N 67°08' E 013°59'0 0.0
2017-Jan-11 02:33N 67°08' E 013°59'0 0.0
2017-Jan-11 01:33N 67°08' E 013°59'0 0.0
2017-Jan-11 00:33N 67°08' E 013°59'0 0.0
2017-Jan-10 23:33N 67°08' E 013°59'0 0.0
2017-Jan-10 22:33N 67°08' E 013°59'0 0.0
2017-Jan-10 21:33N 67°08' E 013°59'0 0.0
2017-Jan-10 20:33N 67°08' E 013°59'3 3.2
2017-Jan-10 19:29N 67°05' E 014°02'2 2.3
2017-Jan-10 18:33N 67°07' E 013°59'2 1.6
2017-Jan-10 17:33N 67°05' E 014°00'3 3.0
2017-Jan-10 16:33N 67°08' E 013°59'4 3.3
2017-Jan-10 15:25N 67°05' E 014°04'0 0.5
2017-Jan-10 14:31N 67°05' E 014°02'4 3.7
2017-Jan-10 13:33N 67°08' E 013°59'0 0.0
2017-Jan-10 12:33N 67°08' E 013°59'2 2.4
2017-Jan-10 11:33N 67°06' E 013°59'0 0.1
2017-Jan-10 10:34N 67°06' E 013°59'2 2.3
2017-Jan-10 09:33N 67°08' E 013°59'2 1.6
2017-Jan-10 08:33N 67°07' E 013°59'2 1.0
2017-Jan-10 06:30N 67°05' E 014°02'3 3.6
2017-Jan-10 05:33N 67°08' E 013°59'0 0.0
2017-Jan-10 04:33N 67°08' E 013°59'0 0.0
2017-Jan-10 03:33N 67°08' E 013°59'0 0.0
2017-Jan-10 02:33N 67°08' E 013°59'0 0.0
2017-Jan-10 01:33N 67°08' E 013°59'0 0.0
2017-Jan-10 00:33N 67°08' E 013°59'0 0.0
2017-Jan-09 23:33N 67°08' E 013°59'0 0.0
2017-Jan-09 22:33N 67°08' E 013°59'0 0.0
2017-Jan-09 21:33N 67°08' E 013°59'0 0.0
2017-Jan-09 20:33N 67°08' E 013°59'3 2.9
2017-Jan-09 19:22N 67°05' E 014°01'1 1.2
2017-Jan-09 18:31N 67°05' E 013°59'1 1.1
2017-Jan-09 17:33N 67°06' E 013°59'2 1.7
2017-Jan-09 16:33N 67°08' E 013°59'4 1.9
2017-Jan-09 14:26N 67°05' E 014°04'4 4.2
2017-Jan-09 13:33N 67°08' E 013°59'2 0.7
2017-Jan-09 10:33N 67°06' E 013°59'  
Track history (hours):
 
Tides and Currents Weather Stations Pressure Air Temp Water Temp Dewpoint Dewpoint Depression Visibility Wind Speed Wind Dir Waves Ship Positions

Fykan

Last reported at 2017-Jan-19 10:32 UTC. Time now 2017-Jan-19 10:53 UTC.
Position N 67°06' E 014°01'.

Length 52 m; draft 3.3 m.

Type: Ship. MMSI: 259681000.

Date/timePositionNaut miles runAvg speedWind from/ knotsBaromVisibWave heightAir tempDewpointWater temp
2017-Jan-19 10:32N 67°06' E 014°01'2 2.1
2017-Jan-19 09:33N 67°08' E 013°59'3 2.8
2017-Jan-19 08:33N 67°05' E 014°00'1 0.4
2017-Jan-19 06:29N 67°05' E 014°02'3 3.7
2017-Jan-19 05:34N 67°08' E 013°59'0 0.0
2017-Jan-19 04:33N 67°08' E 013°59'0 0.0
2017-Jan-19 03:33N 67°08' E 013°59'0 0.0
2017-Jan-19 02:34N 67°08' E 013°59'0 0.0
2017-Jan-19 01:33N 67°08' E 013°59'0 0.0
2017-Jan-19 00:33N 67°08' E 013°59'0 0.0
2017-Jan-18 23:33N 67°08' E 013°59'0 0.0
2017-Jan-18 22:34N 67°08' E 013°59'0 0.0
2017-Jan-18 21:33N 67°08' E 013°59'0 0.0
2017-Jan-18 20:33N 67°08' E 013°59'3 2.8
2017-Jan-18 19:19N 67°05' E 014°02'3 4.5
2017-Jan-18 18:33N 67°08' E 013°59'0 0.0
2017-Jan-18 17:33N 67°08' E 013°59'0 0.0
2017-Jan-18 16:33N 67°08' E 013°59'0 0.0
2017-Jan-18 15:34N 67°08' E 013°59'0 0.0
2017-Jan-18 14:33N 67°08' E 013°59'0 0.0
2017-Jan-18 13:32N 67°08' E 013°59'0 0.0
2017-Jan-18 12:33N 67°08' E 013°59'3 3.2
2017-Jan-18 11:28N 67°05' E 014°01'2 1.8
2017-Jan-18 10:33N 67°06' E 014°01'2 1.9
2017-Jan-18 09:33N 67°08' E 013°59'2 2.0
2017-Jan-18 08:33N 67°06' E 013°59'2 0.9
2017-Jan-18 06:32N 67°05' E 014°02'3 3.5
2017-Jan-18 05:33N 67°08' E 013°59'0 0.0
2017-Jan-18 04:33N 67°08' E 013°59'0 0.0
2017-Jan-18 03:33N 67°08' E 013°59'0 0.0
2017-Jan-18 02:33N 67°08' E 013°59'0 0.0
2017-Jan-18 01:33N 67°08' E 013°59'0 0.0
2017-Jan-18 00:33N 67°08' E 013°59'0 0.0
2017-Jan-17 23:33N 67°08' E 013°59'0 0.0
2017-Jan-17 22:33N 67°08' E 013°59'0 0.0
2017-Jan-17 21:33N 67°08' E 013°59'0 0.0
2017-Jan-17 20:33N 67°08' E 013°59'4 3.9
2017-Jan-17 19:31N 67°05' E 014°04'3 2.7
2017-Jan-17 18:33N 67°06' E 013°59'1 1.4
2017-Jan-17 17:33N 67°05' E 013°60'3 3.1
2017-Jan-17 16:33N 67°08' E 013°59'3 1.7
2017-Jan-17 14:30N 67°05' E 014°02'3 3.7
2017-Jan-17 13:33N 67°08' E 013°59'0 0.0
2017-Jan-17 12:33N 67°08' E 013°59'3 3.3
2017-Jan-17 11:31N 67°05' E 014°01'2 1.6
2017-Jan-17 10:33N 67°06' E 013°59'2 2.1
2017-Jan-17 09:33N 67°08' E 013°59'2 1.7
2017-Jan-17 08:33N 67°06' E 013°59'2 1.0
2017-Jan-17 06:30N 67°05' E 014°02'3 3.7
2017-Jan-17 05:33N 67°08' E 013°59'0 0.0
2017-Jan-17 04:33N 67°08' E 013°59'0 0.0
2017-Jan-17 03:33N 67°08' E 013°59'0 0.0
2017-Jan-17 02:33N 67°08' E 013°59'0 0.0
2017-Jan-17 01:33N 67°08' E 013°59'0 0.0
2017-Jan-17 00:33N 67°08' E 013°59'0 0.0
2017-Jan-16 23:33N 67°08' E 013°59'0 0.0
2017-Jan-16 22:33N 67°08' E 013°59'0 0.0
2017-Jan-16 21:33N 67°08' E 013°59'0 0.0
2017-Jan-16 20:33N 67°08' E 013°59'4 3.9
2017-Jan-16 19:33N 67°05' E 014°04'2 2.2
2017-Jan-16 18:33N 67°06' E 013°59'1 0.7
2017-Jan-16 17:33N 67°05' E 013°60'3 2.9
2017-Jan-16 16:33N 67°08' E 013°59'3 3.5
2017-Jan-16 15:33N 67°05' E 014°01'0 0.0
2017-Jan-16 14:07N 67°05' E 014°01'3 6.2
2017-Jan-16 13:33N 67°08' E 013°59'2 0.7
2017-Jan-16 10:33N 67°06' E 013°59'2 2.2
2017-Jan-16 09:33N 67°08' E 013°59'1 1.5
2017-Jan-16 08:33N 67°07' E 013°59'2 1.1
2017-Jan-16 06:33N 67°05' E 014°02'3 3.4
2017-Jan-16 05:33N 67°08' E 013°59'0 0.0
2017-Jan-16 04:33N 67°08' E 013°59'0 0.0
2017-Jan-16 03:33N 67°08' E 013°59'0 0.0
2017-Jan-16 02:33N 67°08' E 013°59'0 0.0
2017-Jan-16 01:33N 67°08' E 013°59'0 0.0
2017-Jan-16 00:33N 67°08' E 013°59'0 0.0
2017-Jan-15 23:33N 67°08' E 013°59'0 0.0
2017-Jan-15 22:33N 67°08' E 013°59'0 0.0
2017-Jan-15 21:33N 67°08' E 013°59'0 0.0
2017-Jan-15 20:33N 67°08' E 013°59'3 1.6
2017-Jan-15 18:33N 67°05' E 014°03'2 2.1
2017-Jan-15 17:33N 67°07' E 013°58'2 1.6
2017-Jan-15 16:13N 67°05' E 014°02'3 5.3
2017-Jan-15 15:33N 67°08' E 013°59'2 2.0
2017-Jan-15 14:33N 67°06' E 013°59'2 0.3
2017-Jan-15 09:23N 67°05' E 014°02'2 1.9
2017-Jan-15 08:33N 67°06' E 013°59'1 0.1
2017-Jan-14 16:33N 67°05' E 013°60'1 0.6
2017-Jan-14 15:33N 67°05' E 014°01'1 0.3
2017-Jan-14 10:34N 67°06' E 013°59'2 2.4
2017-Jan-14 09:33N 67°08' E 013°59'1 1.0
2017-Jan-14 08:33N 67°07' E 013°59'3 2.3
2017-Jan-14 07:27N 67°05' E 014°02'3 3.9
2017-Jan-14 06:33N 67°08' E 013°59'0 0.0
2017-Jan-14 05:33N 67°08' E 013°59'0 0.0
2017-Jan-14 04:33N 67°08' E 013°59'0 0.0
2017-Jan-14 03:33N 67°08' E 013°59'0 0.0
2017-Jan-13 23:33N 67°08' E 013°59'0 0.0
2017-Jan-13 22:33N 67°08' E 013°59'0 0.0
2017-Jan-13 21:33N 67°08' E 013°59'0 0.0
2017-Jan-13 20:33N 67°08' E 013°59'4 3.8
2017-Jan-13 19:31N 67°05' E 014°04'3 2.8
2017-Jan-13 18:33N 67°07' E 013°59'1 0.7
2017-Jan-13 16:33N 67°05' E 013°60'1 0.7
2017-Jan-13 15:33N 67°05' E 014°01'0 0.1
2017-Jan-13 14:29N 67°05' E 014°02'3 3.8
2017-Jan-13 13:33N 67°08' E 013°59'0 0.0
2017-Jan-13 12:33N 67°08' E 013°59'3 3.4
2017-Jan-13 11:33N 67°05' E 014°01'1 1.4
2017-Jan-13 10:33N 67°06' E 013°59'2 2.3
2017-Jan-13 09:33N 67°08' E 013°59'2 1.6
2017-Jan-13 08:33N 67°07' E 013°59'2 1.0
2017-Jan-13 06:28N 67°05' E 014°01'3 3.8
2017-Jan-13 05:33N 67°08' E 013°59'0 0.0
2017-Jan-13 04:33N 67°08' E 013°59'0 0.0
2017-Jan-13 03:33N 67°08' E 013°59'0 0.0
2017-Jan-13 02:33N 67°08' E 013°59'0 0.0
2017-Jan-13 01:33N 67°08' E 013°59'0 0.0
2017-Jan-13 00:33N 67°08' E 013°59'0 0.0
2017-Jan-12 23:33N 67°08' E 013°59'0 0.0
2017-Jan-12 22:33N 67°08' E 013°59'0 0.0
2017-Jan-12 21:33N 67°08' E 013°59'0 0.0
2017-Jan-12 20:33N 67°08' E 013°59'3 2.9
2017-Jan-12 19:22N 67°05' E 014°02'2 2.2
2017-Jan-12 18:33N 67°06' E 013°59'1 1.2
2017-Jan-12 17:33N 67°05' E 014°00'3 3.1
2017-Jan-12 16:33N 67°08' E 013°59'3 1.7
2017-Jan-12 14:32N 67°05' E 014°02'3 3.5
2017-Jan-12 13:33N 67°08' E 013°59'0 0.0
2017-Jan-12 12:33N 67°08' E 013°59'3 2.5
2017-Jan-12 11:33N 67°06' E 013°59'0 0.3
2017-Jan-12 10:33N 67°06' E 013°59'2 2.2
2017-Jan-12 09:33N 67°08' E 013°59'2 1.5
2017-Jan-12 08:33N 67°07' E 013°59'2 1.1
2017-Jan-12 06:32N 67°05' E 014°02'3 3.5
2017-Jan-12 05:33N 67°08' E 013°59'0 0.0
2017-Jan-12 04:33N 67°08' E 013°59'0 0.0
2017-Jan-12 03:33N 67°08' E 013°59'0 0.0
2017-Jan-12 02:33N 67°08' E 013°59'0 0.0
2017-Jan-12 01:33N 67°08' E 013°59'0 0.0
2017-Jan-12 00:33N 67°08' E 013°59'0 0.0
2017-Jan-11 23:33N 67°08' E 013°59'0 0.0
2017-Jan-11 22:33N 67°08' E 013°59'0 0.0
2017-Jan-11 21:33N 67°08' E 013°59'0 0.0
2017-Jan-11 20:33N 67°08' E 013°59'3 2.7
2017-Jan-11 19:17N 67°05' E 014°01'2 2.7
2017-Jan-11 18:33N 67°07' E 013°59'2 1.5
2017-Jan-11 17:33N 67°05' E 014°00'3 3.1
2017-Jan-11 16:33N 67°08' E 013°59'3 1.7
2017-Jan-11 14:30N 67°05' E 014°02'3 3.7
2017-Jan-11 13:33N 67°08' E 013°59'0 0.0
2017-Jan-11 12:33N 67°08' E 013°59'3 2.6
2017-Jan-11 11:33N 67°06' E 013°59'1 1.2
2017-Jan-11 10:33N 67°07' E 013°59'1 1.5
2017-Jan-11 09:33N 67°08' E 013°59'2 1.6
2017-Jan-11 08:33N 67°07' E 013°59'2 1.0
2017-Jan-11 06:29N 67°05' E 014°02'3 3.6
2017-Jan-11 05:33N 67°08' E 013°59'0 0.0
2017-Jan-11 04:33N 67°08' E 013°59'0 0.0
2017-Jan-11 03:33N 67°08' E 013°59'0 0.0
2017-Jan-11 02:33N 67°08' E 013°59'0 0.0
2017-Jan-11 01:33N 67°08' E 013°59'0 0.0
2017-Jan-11 00:33N 67°08' E 013°59'0 0.0
2017-Jan-10 23:33N 67°08' E 013°59'0 0.0
2017-Jan-10 22:33N 67°08' E 013°59'0 0.0
2017-Jan-10 21:33N 67°08' E 013°59'0 0.0
2017-Jan-10 20:33N 67°08' E 013°59'3 3.2
2017-Jan-10 19:29N 67°05' E 014°02'2 2.3
2017-Jan-10 18:33N 67°07' E 013°59'2 1.6
2017-Jan-10 17:33N 67°05' E 014°00'3 3.0
2017-Jan-10 16:33N 67°08' E 013°59'4 3.3
2017-Jan-10 15:25N 67°05' E 014°04'0 0.5
2017-Jan-10 14:31N 67°05' E 014°02'4 3.7
2017-Jan-10 13:33N 67°08' E 013°59'0 0.0
2017-Jan-10 12:33N 67°08' E 013°59'2 2.4
2017-Jan-10 11:33N 67°06' E 013°59'0 0.1
2017-Jan-10 10:34N 67°06' E 013°59'2 2.3
2017-Jan-10 09:33N 67°08' E 013°59'2 1.6
2017-Jan-10 08:33N 67°07' E 013°59'2 1.0
2017-Jan-10 06:30N 67°05' E 014°02'3 3.6
2017-Jan-10 05:33N 67°08' E 013°59'0 0.0
2017-Jan-10 04:33N 67°08' E 013°59'0 0.0
2017-Jan-10 03:33N 67°08' E 013°59'0 0.0
2017-Jan-10 02:33N 67°08' E 013°59'0 0.0
2017-Jan-10 01:33N 67°08' E 013°59'0 0.0
2017-Jan-10 00:33N 67°08' E 013°59'0 0.0
2017-Jan-09 23:33N 67°08' E 013°59'0 0.0
2017-Jan-09 22:33N 67°08' E 013°59'0 0.0
2017-Jan-09 21:33N 67°08' E 013°59'0 0.0
2017-Jan-09 20:33N 67°08' E 013°59'3 2.9
2017-Jan-09 19:22N 67°05' E 014°01'1 1.2
2017-Jan-09 18:31N 67°05' E 013°59'1 1.1
2017-Jan-09 17:33N 67°06' E 013°59'2 1.7
2017-Jan-09 16:33N 67°08' E 013°59'4 1.9
2017-Jan-09 14:26N 67°05' E 014°04'4 4.2
2017-Jan-09 13:33N 67°08' E 013°59'2 0.7
2017-Jan-09 10:33N 67°06' E 013°59'  

Dump ship's entire track history